Time;durP1;ratioP1;P1;durP2;ratioP2;P2;SDS_P1;SDS_P2;PMS_P1;PMS_P2;Temp;Humidity;BMP_temperature;BMP_pressure;BME280_temperature;BME280_humidity;BME280_pressure;Samples;Min_cycle;Max_cycle;Signal;HPM_P1;HPM_P2
2022/06/07 00:00:24;;;;;;;3.58;1.60;;;;;;;13.75;76.66;100726.13;4954566;28;20070;-71
2022/06/07 00:02:50;;;;;;;4.13;1.42;;;;;;;13.77;76.02;100733.94;4974844;28;20026;-70
2022/06/07 00:05:16;;;;;;;1.80;1.67;;;;;;;13.68;76.12;100731.22;4976029;28;20026;-68
2022/06/07 00:07:42;;;;;;;1.80;1.60;;;;;;;13.66;76.35;100730.53;4985045;28;20490;-71
2022/06/07 00:10:07;;;;;;;1.95;1.42;;;;;;;13.57;76.42;100734.97;4986875;28;20805;-70
2022/06/07 00:12:33;;;;;;;4.75;1.40;;;;;;;13.49;77.08;100731.44;4964597;28;20018;-71
2022/06/07 00:14:58;;;;;;;1.70;1.60;;;;;;;13.42;77.20;100722.41;4971678;28;20061;-71
2022/06/07 00:17:23;;;;;;;4.20;1.70;;;;;;;13.35;77.40;100732.81;4967514;28;20030;-69
2022/06/07 00:19:49;;;;;;;2.03;1.63;;;;;;;13.31;77.70;100726.97;4972222;28;20014;-70
2022/06/07 00:22:16;;;;;;;2.33;1.75;;;;;;;13.24;77.92;100725.94;4969760;28;20301;-72
2022/06/07 00:24:41;;;;;;;2.13;1.70;;;;;;;13.21;78.29;100728.88;4951952;28;20156;-71
2022/06/07 00:27:07;;;;;;;1.88;1.70;;;;;;;13.28;78.11;100729.09;4968461;28;20018;-71
2022/06/07 00:29:32;;;;;;;1.50;1.35;;;;;;;13.20;78.46;100733.38;4971324;28;20019;-69
2022/06/07 00:31:59;;;;;;;2.35;1.60;;;;;;;13.28;78.51;100721.13;4953405;28;20081;-70
2022/06/07 00:34:24;;;;;;;1.88;1.40;;;;;;;13.22;78.51;100720.75;4967790;28;20745;-71
2022/06/07 00:36:50;;;;;;;1.55;1.40;;;;;;;13.18;78.64;100718.56;4966949;28;20471;-71
2022/06/07 00:39:15;;;;;;;3.25;1.50;;;;;;;13.19;78.70;100730.88;4969644;28;20034;-69
2022/06/07 00:41:41;;;;;;;2.05;1.70;;;;;;;13.09;78.88;100725.63;4945051;28;20838;-69
2022/06/07 00:44:44;;;;;;;3.25;1.48;;;;;;;13.07;79.44;100722.28;4969323;28;20487;-73
2022/06/07 00:47:17;;;;;;;3.72;1.80;;;;;;;12.96;79.61;100714.56;4971647;28;20075;-69
2022/06/07 00:50:05;;;;;;;1.70;1.60;;;;;;;12.94;80.10;100720.03;4968850;28;20364;-71
2022/06/07 00:52:32;;;;;;;7.70;1.80;;;;;;;12.89;79.95;100717.84;4968302;28;20026;-71
2022/06/07 00:54:57;;;;;;;2.67;1.50;;;;;;;12.94;79.87;100725.34;4966716;28;20104;-70
2022/06/07 00:57:23;;;;;;;1.95;1.48;;;;;;;12.90;79.47;100716.00;4948050;28;20327;-71
2022/06/07 00:59:50;;;;;;;5.10;1.85;;;;;;;12.89;79.98;100714.34;4968245;28;20113;-70
2022/06/07 01:02:16;;;;;;;2.47;1.50;;;;;;;12.85;80.12;100719.13;4965708;28;20019;-69
2022/06/07 01:04:41;;;;;;;1.40;1.30;;;;;;;12.83;80.02;100712.28;4967924;28;20451;-70
2022/06/07 01:12:35;;;;;;;3.63;1.80;;;;;;;12.80;79.87;100709.94;4966435;28;20021;-69
2022/06/07 01:15:01;;;;;;;2.88;1.70;;;;;;;12.68;80.44;100712.81;4946120;28;20366;-71
2022/06/07 01:17:26;;;;;;;2.95;1.70;;;;;;;12.71;80.32;100717.00;4964988;28;20082;-71
2022/06/07 01:19:52;;;;;;;3.63;1.80;;;;;;;12.67;80.44;100715.63;4969134;28;20038;-71
2022/06/07 01:22:17;;;;;;;2.45;1.90;;;;;;;12.65;80.71;100713.13;4969351;28;20839;-69
2022/06/07 01:24:43;;;;;;;2.00;1.77;;;;;;;12.58;80.72;100720.03;4966529;28;20010;-71
2022/06/07 01:27:08;;;;;;;3.40;1.80;;;;;;;12.59;81.22;100713.72;4967581;28;20079;-70
2022/06/07 01:29:34;;;;;;;1.98;1.88;;;;;;;12.46;81.34;100715.91;4946519;28;20841;-70
2022/06/07 01:32:00;;;;;;;3.13;1.80;;;;;;;12.47;81.32;100709.63;4967421;28;20604;-70
2022/06/07 01:34:25;;;;;;;3.05;2.00;;;;;;;12.46;81.35;100718.56;4986184;28;20022;-69
2022/06/07 01:36:51;;;;;;;3.42;1.77;;;;;;;12.51;80.88;100711.00;4980668;28;20809;-70
2022/06/07 01:42:00;;;;;;;;;;;;;;;12.45;80.95;100717.75;4968204;28;20064;-70
2022/06/07 01:44:28;;;;;;;4.55;1.75;;;;;;;12.37;81.19;100710.53;4984019;28;19912;-71
2022/06/07 01:46:54;;;;;;;2.50;2.30;;;;;;;12.45;80.98;100717.75;4950163;28;20032;-69
2022/06/07 01:49:19;;;;;;;3.35;2.20;;;;;;;12.36;81.12;100711.50;4969909;28;19998;-72
2022/06/07 01:51:45;;;;;;;2.65;2.30;;;;;;;12.33;81.08;100711.81;4968240;28;20435;-70
2022/06/07 01:54:12;;;;;;;3.45;2.30;;;;;;;12.35;81.55;100712.50;4964888;28;20386;-71
2022/06/07 01:56:38;;;;;;;5.97;1.95;;;;;;;12.41;81.07;100707.56;4968858;28;20073;-69
2022/06/07 01:59:04;;;;;;;3.33;2.10;;;;;;;12.35;81.30;100703.69;4968682;28;21044;-70
2022/06/07 02:01:29;;;;;;;5.07;2.20;;;;;;;12.31;81.88;100705.81;4965807;28;20018;-70
2022/06/07 02:03:55;;;;;;;3.10;2.00;;;;;;;12.57;81.15;100699.78;4966959;28;20273;-70
2022/06/07 02:06:20;;;;;;;3.03;1.90;;;;;;;12.63;80.99;100699.16;4966838;28;20030;-71
2022/06/07 02:08:46;;;;;;;2.83;1.90;;;;;;;12.67;81.30;100700.53;4973651;28;20117;-69
2022/06/07 02:11:19;;;;;;;2.20;1.92;;;;;;;12.71;81.05;100691.28;4948727;28;20018;-71
2022/06/07 02:13:45;;;;;;;;;;;;;;;12.63;81.40;100698.34;4929159;28;20015;-71
2022/06/07 02:16:10;;;;;;;3.63;1.80;;;;;;;12.61;81.24;100693.19;4979600;28;19932;-71
2022/06/07 02:18:36;;;;;;;2.10;2.00;;;;;;;12.56;81.37;100689.31;4967528;28;20018;-69
2022/06/07 02:21:01;;;;;;;4.55;2.08;;;;;;;12.54;81.43;100694.78;4966717;28;20579;-70
2022/06/07 02:23:27;;;;;;;5.07;1.95;;;;;;;12.40;81.29;100685.50;4965962;28;21027;-71
2022/06/07 02:25:54;;;;;;;3.90;1.95;;;;;;;12.33;81.72;100687.09;4949503;28;20014;-71
2022/06/07 02:28:21;;;;;;;2.63;1.90;;;;;;;12.34;81.79;100678.97;4970130;28;20018;-69
2022/06/07 02:30:46;;;;;;;2.03;1.90;;;;;;;12.25;81.95;100682.53;4952456;28;20608;-71
2022/06/07 02:33:12;;;;;;;1.77;1.67;;;;;;;12.33;81.57;100676.47;4971876;28;20927;-71
2022/06/07 02:35:39;;;;;;;1.95;1.85;;;;;;;12.38;81.58;100682.19;4967391;28;20029;-70
2022/06/07 02:38:04;;;;;;;2.03;1.90;;;;;;;12.32;80.93;100674.81;4967731;28;20171;-70
2022/06/07 02:40:30;;;;;;;1.92;1.77;;;;;;;12.39;80.82;100680.34;4965734;28;20564;-70
2022/06/07 02:42:56;;;;;;;1.63;1.52;;;;;;;12.25;81.22;100679.88;4969700;28;20113;-70
2022/06/07 02:45:21;;;;;;;2.30;1.90;;;;;;;12.23;81.38;100689.81;4965167;28;20022;-70
2022/06/07 02:47:47;;;;;;;3.25;1.83;;;;;;;12.06;81.92;100675.53;4967909;28;20033;-69
2022/06/07 02:50:13;;;;;;;1.80;1.70;;;;;;;12.05;81.94;100675.69;4969105;28;20921;-71
2022/06/07 02:52:38;;;;;;;6.03;2.00;;;;;;;12.09;81.83;100672.56;4969116;28;20030;-70
2022/06/07 02:55:04;;;;;;;4.10;2.00;;;;;;;12.03;82.09;100676.66;4973650;28;20022;-71
2022/06/07 02:57:29;;;;;;;2.20;2.00;;;;;;;12.05;82.13;100680.97;4974340;28;20072;-69
2022/06/07 02:59:55;;;;;;;3.92;1.98;;;;;;;12.23;81.41;100687.16;4971243;28;20015;-69
2022/06/07 03:02:21;;;;;;;4.38;1.90;;;;;;;12.15;81.31;100679.09;4973681;28;20076;-70
2022/06/07 03:04:46;;;;;;;4.10;1.83;;;;;;;12.05;81.63;100673.03;4973054;28;20018;-70
2022/06/07 03:07:12;;;;;;;2.75;2.10;;;;;;;12.13;81.43;100675.78;4969199;28;20058;-70
2022/06/07 03:09:37;;;;;;;1.70;1.60;;;;;;;12.28;80.45;100676.94;4972668;28;20014;-71
2022/06/07 03:12:03;;;;;;;3.22;2.03;;;;;;;12.12;80.76;100679.41;4970517;28;20011;-71
2022/06/07 03:14:28;;;;;;;2.05;1.80;;;;;;;12.06;80.85;100680.84;4976980;28;20282;-69
2022/06/07 03:16:54;;;;;;;2.20;2.00;;;;;;;11.96;81.39;100688.84;4964324;28;20826;-70
2022/06/07 03:19:19;;;;;;;2.15;1.90;;;;;;;11.94;81.49;100682.81;4978064;28;20068;-70
2022/06/07 03:21:45;;;;;;;1.77;1.67;;;;;;;11.90;81.73;100683.25;4983075;28;20022;-70
2022/06/07 03:24:10;;;;;;;2.88;1.90;;;;;;;11.88;82.23;100688.69;4981392;28;20030;-69
2022/06/07 03:26:36;;;;;;;1.90;1.80;;;;;;;11.77;82.29;100684.41;4974481;28;20094;-69
2022/06/07 03:29:01;;;;;;;3.67;1.98;;;;;;;11.79;82.54;100685.13;4973017;28;20637;-70
2022/06/07 03:31:26;;;;;;;2.20;1.80;;;;;;;11.83;82.16;100683.00;4970464;28;20022;-70
2022/06/07 03:33:53;;;;;;;2.28;1.98;;;;;;;11.88;82.33;100683.41;4966882;28;20006;-71
2022/06/07 03:36:20;;;;;;;1.88;1.77;;;;;;;11.86;82.06;100690.69;4966124;28;20033;-71
2022/06/07 03:38:46;;;;;;;1.77;1.67;;;;;;;11.96;81.53;100693.31;4967877;28;20022;-72
2022/06/07 03:41:18;;;;;;;2.35;1.88;;;;;;;11.90;81.81;100685.91;4967540;28;20506;-69
2022/06/07 03:43:44;;;;;;;2.53;1.95;;;;;;;11.98;81.83;100692.16;4954030;28;20006;-70
2022/06/07 03:46:14;;;;;;;2.25;2.05;;;;;;;12.04;81.16;100685.44;4970338;28;20160;-72
2022/06/07 03:48:43;;;;;;;3.63;2.00;;;;;;;11.95;81.50;100689.00;4952159;28;20025;-72
2022/06/07 03:51:09;;;;;;;2.42;1.70;;;;;;;12.07;81.33;100686.97;4950616;28;20127;-72
2022/06/07 03:53:34;;;;;;;2.83;1.88;;;;;;;11.95;81.51;100692.47;4971309;28;20867;-72
2022/06/07 03:56:00;;;;;;;2.58;1.67;;;;;;;11.93;81.61;100691.75;4953807;28;20070;-70
2022/06/07 03:58:25;;;;;;;2.10;1.88;;;;;;;11.97;81.60;100690.53;4970998;28;20064;-69
2022/06/07 04:00:52;;;;;;;2.67;1.90;;;;;;;12.03;81.58;100695.22;4966781;28;20019;-69
2022/06/07 04:03:17;;;;;;;2.35;1.70;;;;;;;12.11;81.18;100688.34;4968034;28;20801;-70
2022/06/07 04:05:44;;;;;;;2.45;1.70;;;;;;;11.99;81.25;100699.16;4967310;28;20019;-71
2022/06/07 04:08:12;;;;;;;1.98;1.80;;;;;;;11.93;81.78;100693.56;4970246;28;20018;-69
2022/06/07 04:10:49;;;;;;;1.75;1.52;;;;;;;12.09;81.26;100692.97;4968552;28;20380;-71
2022/06/07 04:13:15;;;;;;;1.70;1.60;;;;;;;12.09;81.10;100690.31;4968469;28;20133;-72
2022/06/07 04:15:41;;;;;;;3.33;1.60;;;;;;;12.02;81.36;100700.66;4955398;28;20117;-71
2022/06/07 04:18:07;;;;;;;1.73;1.60;;;;;;;11.95;81.67;100694.28;4952876;28;20034;-68
2022/06/07 04:20:32;;;;;;;3.15;1.83;;;;;;;11.94;81.97;100696.09;4970137;28;20052;-69
2022/06/07 04:22:58;;;;;;;3.25;1.83;;;;;;;11.94;81.94;100703.22;4953430;28;20487;-70
2022/06/07 04:25:24;;;;;;;1.83;1.60;;;;;;;11.88;82.11;100698.47;4951003;28;20026;-71
2022/06/07 04:27:50;;;;;;;4.40;1.90;;;;;;;11.92;82.37;100706.00;4970100;28;20037;-68
2022/06/07 04:30:16;;;;;;;2.80;1.60;;;;;;;12.01;82.17;100705.16;4970252;28;20006;-68
2022/06/07 04:32:46;;;;;;;2.00;1.80;;;;;;;12.05;82.42;100696.91;4952309;28;20422;-70
2022/06/07 04:35:13;;;;;;;3.70;2.00;;;;;;;12.06;82.40;100702.06;4954339;28;20010;-68
2022/06/07 04:37:39;;;;;;;1.80;1.63;;;;;;;12.14;82.56;100688.03;4953366;28;20033;-71
2022/06/07 04:40:05;;;;;;;2.70;1.75;;;;;;;12.18;82.54;100695.56;4965798;28;20027;-71
2022/06/07 04:42:30;;;;;;;1.65;1.65;;;;;;;12.17;82.62;100701.03;4964352;28;20015;-70
2022/06/07 04:44:55;;;;;;;3.47;2.00;;;;;;;12.15;82.65;100703.78;4970948;28;20826;-70
2022/06/07 04:47:21;;;;;;;3.90;2.05;;;;;;;12.20;82.34;100698.91;4969864;28;20071;-71
2022/06/07 04:49:46;;;;;;;1.77;1.67;;;;;;;12.31;82.12;100702.31;4971026;28;20164;-71
2022/06/07 04:52:12;;;;;;;3.13;1.77;;;;;;;12.48;81.70;100700.66;4969441;28;20026;-71
2022/06/07 04:54:37;;;;;;;2.05;1.60;;;;;;;12.49;81.48;100699.69;4969237;28;20022;-70
2022/06/07 04:57:03;;;;;;;1.80;1.70;;;;;;;12.62;81.12;100700.16;4969876;28;20898;-70
2022/06/07 04:59:28;;;;;;;1.73;1.60;;;;;;;12.69;81.01;100693.25;4967800;28;20394;-71
2022/06/07 05:01:54;;;;;;;2.13;1.80;;;;;;;12.72;80.96;100697.44;4948173;28;20010;-72
2022/06/07 05:04:19;;;;;;;1.80;1.70;;;;;;;12.94;80.45;100698.78;4964594;28;20625;-72
2022/06/07 05:06:45;;;;;;;2.00;1.80;;;;;;;13.08;80.26;100701.88;4966668;28;20068;-71
2022/06/07 05:09:20;;;;;;;2.33;1.63;;;;;;;13.24;80.09;100702.00;4948825;28;20353;-70
2022/06/07 05:11:49;;;;;;;1.85;1.63;;;;;;;13.36;79.51;100705.28;4959215;28;20045;-72
2022/06/07 05:14:14;;;;;;;1.58;1.50;;;;;;;13.49;79.33;100710.16;4965273;28;20127;-71
2022/06/07 05:16:41;;;;;;;1.70;1.50;;;;;;;13.56;77.99;100703.22;4948690;28;20610;-70
2022/06/07 05:19:07;;;;;;;3.40;1.63;;;;;;;13.69;78.57;100710.78;4957023;28;20030;-71
2022/06/07 05:21:32;;;;;;;2.38;1.58;;;;;;;13.82;78.17;100710.34;4951981;28;20200;-70
2022/06/07 05:23:57;;;;;;;3.00;1.50;;;;;;;14.09;78.31;100707.47;4946818;28;20360;-71
2022/06/07 05:26:47;;;;;;;2.45;1.80;;;;;;;14.19;77.93;100701.19;4950497;28;20812;-70
2022/06/07 05:29:53;;;;;;;2.97;1.73;;;;;;;14.46;76.99;100709.91;4935034;28;20015;-70
2022/06/07 05:32:18;;;;;;;1.92;1.63;;;;;;;14.67;76.30;100710.31;4953284;28;20026;-70
2022/06/07 05:34:44;;;;;;;1.65;1.55;;;;;;;14.72;75.66;100712.47;4954078;28;20394;-71
2022/06/07 05:37:17;;;;;;;1.50;1.40;;;;;;;14.87;75.36;100707.34;4920187;28;20900;-71
2022/06/07 05:39:43;;;;;;;2.47;1.63;;;;;;;14.95;76.50;100702.00;4940531;28;20042;-70
2022/06/07 05:42:10;;;;;;;1.70;1.60;;;;;;;15.15;75.68;100707.81;4967982;28;20514;-70
2022/06/07 05:44:36;;;;;;;4.03;1.90;;;;;;;15.39;75.11;100714.97;4950755;28;20023;-71
2022/06/07 05:47:02;;;;;;;2.25;1.40;;;;;;;15.43;74.27;100716.28;4970764;28;20030;-71
2022/06/07 05:49:28;;;;;;;4.00;1.73;;;;;;;15.61;72.42;100716.09;4966713;28;20019;-71
2022/06/07 05:51:53;;;;;;;2.10;1.45;;;;;;;15.56;71.33;100720.28;4913296;28;20268;-71
2022/06/07 05:54:19;;;;;;;2.33;1.80;;;;;;;15.66;71.29;100715.56;4949340;28;20610;-72
2022/06/07 05:56:44;;;;;;;2.95;1.65;;;;;;;15.77;71.27;100728.53;4948936;28;20058;-72
2022/06/07 05:59:10;;;;;;;1.77;1.60;;;;;;;15.78;70.89;100716.88;4966205;28;20026;-71
2022/06/07 06:01:35;;;;;;;2.10;1.50;;;;;;;15.85;67.13;100718.88;4969329;28;20084;-70
2022/06/07 06:04:03;;;;;;;6.38;1.70;;;;;;;15.93;68.33;100730.38;4967421;28;20445;-72
2022/06/07 06:06:29;;;;;;;1.70;1.27;;;;;;;15.88;63.75;100724.72;4949874;28;20025;-71
2022/06/07 06:11:38;;;;;;;1.13;1.02;;;;;;;15.95;61.66;100728.34;4967443;28;20025;-71
2022/06/07 06:14:04;;;;;;;3.05;1.23;;;;;;;16.06;61.12;100727.16;4945310;28;20023;-70
2022/06/07 06:16:29;;;;;;;1.30;1.20;;;;;;;16.14;62.02;100721.78;4935982;28;20026;-70
2022/06/07 06:18:56;;;;;;;2.03;1.30;;;;;;;16.24;63.08;100723.38;4952863;28;20941;-71
2022/06/07 06:21:23;;;;;;;2.72;1.35;;;;;;;16.28;60.32;100724.72;4951251;28;20121;-71
2022/06/07 06:23:49;;;;;;;2.92;1.48;;;;;;;16.39;59.17;100723.50;4972480;28;20018;-70
2022/06/07 06:26:16;;;;;;;1.42;1.33;;;;;;;16.51;59.26;100723.91;4956052;28;20026;-71
2022/06/07 06:28:44;;;;;;;1.55;1.30;;;;;;;16.61;59.54;100735.19;4956982;28;20023;-72
2022/06/07 06:31:11;;;;;;;4.18;1.10;;;;;;;16.53;55.55;100729.94;4941051;28;20007;-71
2022/06/07 06:33:37;;;;;;;3.35;1.27;;;;;;;16.58;56.36;100714.19;4967168;28;20037;-72
2022/06/07 06:36:04;;;;;;;6.10;1.35;;;;;;;16.38;55.43;100730.66;4986423;28;20210;-71
2022/06/07 06:38:30;;;;;;;2.65;1.42;;;;;;;16.30;56.26;100717.34;4961904;28;20316;-71
2022/06/07 06:40:56;;;;;;;2.47;1.50;;;;;;;16.27;56.96;100707.00;4918965;28;20027;-71
2022/06/07 06:43:21;;;;;;;1.70;1.30;;;;;;;16.32;57.00;100710.00;4952443;28;20065;-71
2022/06/07 06:45:47;;;;;;;3.22;1.45;;;;;;;16.46;56.43;100714.59;4952126;28;20457;-70
2022/06/07 06:48:12;;;;;;;2.28;1.40;;;;;;;16.66;54.67;100709.59;4934208;28;20146;-71
2022/06/07 06:50:38;;;;;;;1.98;1.33;;;;;;;16.82;55.20;100715.84;4917488;28;20121;-71
2022/06/07 06:53:03;;;;;;;3.05;1.20;;;;;;;17.11;54.19;100709.78;4951295;28;20050;-71
2022/06/07 06:55:29;;;;;;;1.20;1.10;;;;;;;17.30;52.04;100724.50;4952981;28;20018;-71
2022/06/07 06:57:54;;;;;;;1.92;1.20;;;;;;;17.48;52.10;100715.31;4936078;28;21079;-70
2022/06/07 07:00:20;;;;;;;2.22;1.10;;;;;;;17.57;52.16;100711.53;4954093;28;20420;-71
2022/06/07 07:02:46;;;;;;;1.40;1.13;;;;;;;17.54;50.18;100724.44;4917018;28;20162;-71
2022/06/07 07:05:13;;;;;;;4.47;1.13;;;;;;;17.67;50.45;100716.63;4934114;28;20091;-73
2022/06/07 07:07:39;;;;;;;2.42;1.20;;;;;;;17.64;51.32;100715.13;4915830;28;20750;-70
2022/06/07 07:10:05;;;;;;;2.17;1.20;;;;;;;17.70;50.44;100708.22;4943309;28;20009;-72
2022/06/07 07:12:31;;;;;;;4.00;1.15;;;;;;;17.68;52.03;100713.75;4939324;28;20007;-72
2022/06/07 07:14:57;;;;;;;1.52;1.23;;;;;;;17.68;51.10;100720.94;4954739;28;20062;-70
2022/06/07 07:17:22;;;;;;;2.55;1.15;;;;;;;17.60;51.17;100710.34;4961352;28;21515;-71
2022/06/07 07:19:48;;;;;;;2.85;1.00;;;;;;;17.51;50.90;100713.09;4937690;28;20392;-71
2022/06/07 07:22:13;;;;;;;3.75;1.02;;;;;;;17.56;51.78;100717.09;4915873;28;20010;-71
2022/06/07 07:24:39;;;;;;;1.10;1.00;;;;;;;17.65;51.90;100715.97;4918998;28;20030;-71
2022/06/07 07:27:04;;;;;;;0.98;0.90;;;;;;;17.62;51.80;100713.66;4935966;28;20021;-70
2022/06/07 07:29:30;;;;;;;1.20;0.75;;;;;;;17.90;51.88;100715.69;4956958;28;20852;-71
2022/06/07 07:31:55;;;;;;;1.67;0.80;;;;;;;18.18;51.46;100719.38;4951418;28;20743;-71
2022/06/07 07:34:21;;;;;;;0.80;0.80;;;;;;;18.05;51.55;100716.53;4947906;28;20103;-71
2022/06/07 07:36:48;;;;;;;4.10;1.00;;;;;;;18.26;50.60;100717.59;4941729;28;20054;-71
2022/06/07 07:39:14;;;;;;;1.73;0.80;;;;;;;18.09;51.48;100712.47;4932455;28;20034;-71
2022/06/07 07:41:40;;;;;;;3.63;1.27;;;;;;;17.98;51.94;100707.59;4945892;28;20098;-72
2022/06/07 07:44:06;;;;;;;1.98;0.93;;;;;;;18.08;52.63;100709.97;4937109;28;20864;-73
2022/06/07 07:46:34;;;;;;;5.18;1.13;;;;;;;18.18;51.27;100713.19;4946092;28;20018;-71
2022/06/07 07:49:00;;;;;;;3.38;1.10;;;;;;;18.13;52.21;100710.22;4938168;28;20002;-71
2022/06/07 07:51:36;;;;;;;2.13;1.00;;;;;;;18.17;52.31;100716.88;4924240;28;20019;-71
2022/06/07 07:54:03;;;;;;;2.22;1.00;;;;;;;18.31;51.48;100712.50;4933893;28;20260;-72
2022/06/07 07:56:28;;;;;;;1.77;1.08;;;;;;;18.35;51.61;100714.63;4917041;28;20042;-71
2022/06/07 07:58:54;;;;;;;2.78;0.90;;;;;;;18.40;51.66;100707.88;4954910;28;20888;-71
2022/06/07 08:01:21;;;;;;;1.02;1.02;;;;;;;18.31;52.17;100715.19;4916140;28;20298;-71
2022/06/07 08:03:48;;;;;;;8.43;1.30;;;;;;;18.27;51.85;100714.72;4917716;28;20086;-71
2022/06/07 08:06:17;;;;;;;5.07;1.50;;;;;;;18.40;51.76;100713.22;4916286;28;20015;-70
2022/06/07 08:08:43;;;;;;;2.17;0.93;;;;;;;18.57;51.68;100709.31;4951384;28;20023;-70
2022/06/07 08:11:09;;;;;;;2.45;0.82;;;;;;;18.82;53.34;100711.59;4967591;28;20038;-71
2022/06/07 08:13:36;;;;;;;7.88;1.20;;;;;;;18.96;51.61;100701.84;4909715;28;20149;-71
2022/06/07 08:16:02;;;;;;;7.13;1.13;;;;;;;18.95;49.42;100705.53;4933542;28;20019;-72
2022/06/07 08:18:28;;;;;;;0.80;0.80;;;;;;;18.83;49.98;100705.22;4958785;28;20150;-71
2022/06/07 08:21:04;;;;;;;0.98;0.68;;;;;;;19.01;49.85;100700.25;4951888;28;20263;-71
2022/06/07 08:23:31;;;;;;;1.00;0.90;;;;;;;19.12;49.39;100695.38;4914320;28;20059;-70
2022/06/07 08:25:57;;;;;;;2.75;0.80;;;;;;;19.29;48.83;100696.75;4914358;28;20496;-71
2022/06/07 08:28:22;;;;;;;1.15;0.90;;;;;;;19.11;49.09;100705.28;4931460;28;20993;-72
2022/06/07 08:30:48;;;;;;;2.13;0.90;;;;;;;19.08;50.14;100700.31;4926072;28;20058;-70
2022/06/07 08:38:41;;;;;;;1.90;1.10;;;;;;;19.11;50.00;100691.06;4953553;28;20135;-72
2022/06/07 08:41:07;;;;;;;1.85;1.00;;;;;;;19.22;50.31;100696.69;4956683;28;20909;-70
2022/06/07 08:43:33;;;;;;;1.95;1.10;;;;;;;19.34;50.32;100693.47;4971484;28;20029;-72
2022/06/07 08:45:58;;;;;;;1.60;1.20;;;;;;;19.28;51.74;100688.91;4937241;28;20320;-72
2022/06/07 08:48:26;;;;;;;2.55;1.30;;;;;;;19.25;50.52;100692.81;4979421;28;20022;-73
2022/06/07 08:51:06;;;;;;;2.70;1.30;;;;;;;19.39;51.07;100696.41;4955664;28;20505;-71
2022/06/07 08:53:36;;;;;;;3.13;1.42;;;;;;;19.25;50.58;100694.63;4954083;28;20788;-70
2022/06/07 08:56:04;;;;;;;2.75;1.30;;;;;;;19.21;51.74;100702.25;4955287;28;20072;-70
2022/06/07 08:58:35;;;;;;;4.18;1.10;;;;;;;19.15;51.52;100711.91;4972079;28;20013;-69
2022/06/07 09:01:39;;;;;;;3.72;1.30;;;;;;;18.94;51.31;100706.56;4956001;28;20316;-69
2022/06/07 09:04:15;;;;;;;3.10;1.30;;;;;;;18.85;52.49;100704.00;4944712;28;20507;-71
2022/06/07 09:06:43;;;;;;;3.13;1.40;;;;;;;18.82;52.19;100701.69;4969788;28;20230;-72
2022/06/07 09:09:10;;;;;;;1.42;1.33;;;;;;;18.83;52.01;100695.31;4987720;28;20018;-70
2022/06/07 09:14:54;;;;;;;2.75;1.58;;;;;;;18.71;51.93;100689.66;4936725;28;20099;-71
2022/06/07 09:17:34;;;;;;;1.98;1.38;;;;;;;18.86;52.07;100694.91;4943376;28;20778;-71
2022/06/07 09:20:00;;;;;;;1.95;1.38;;;;;;;18.88;52.23;100692.06;4960832;28;20091;-72
2022/06/07 09:22:36;;;;;;;2.70;1.17;;;;;;;18.98;52.05;100683.69;4940957;28;20026;-72
2022/06/07 09:25:16;;;;;;;3.80;1.33;;;;;;;19.16;52.31;100681.41;4932472;28;20096;-71
2022/06/07 09:27:42;;;;;;;2.15;1.20;;;;;;;19.39;51.59;100680.31;4959579;28;20009;-72
2022/06/07 09:30:17;;;;;;;4.22;1.20;;;;;;;19.53;50.26;100675.81;4973544;28;20021;-69
2022/06/07 09:32:43;;;;;;;4.07;1.20;;;;;;;19.56;50.14;100676.28;4963641;28;20110;-71
2022/06/07 09:35:15;;;;;;;2.45;1.40;;;;;;;19.48;50.92;100681.78;4921479;28;20084;-71
2022/06/07 09:37:49;;;;;;;2.50;1.30;;;;;;;19.49;50.63;100675.41;4928754;28;20085;-71
2022/06/07 09:40:22;;;;;;;;;;;;;;;19.51;51.38;100675.22;4984557;28;20419;-71
2022/06/07 09:42:54;;;;;;;2.05;1.30;;;;;;;19.58;51.06;100664.53;4961290;28;20013;-70
2022/06/07 09:45:28;;;;;;;1.60;1.15;;;;;;;19.50;51.04;100682.44;4970927;28;20797;-71
2022/06/07 09:47:54;;;;;;;1.88;0.90;;;;;;;19.55;49.97;100668.41;4968501;28;20286;-71
2022/06/07 09:50:33;;;;;;;3.95;1.10;;;;;;;19.64;49.78;100663.72;4957567;28;20435;-71
2022/06/07 09:53:06;;;;;;;2.08;1.00;;;;;;;19.89;49.59;100667.56;4946414;28;20398;-71
2022/06/07 09:56:01;;;;;;;2.00;1.15;;;;;;;19.97;49.84;100665.78;4922846;28;20014;-70
2022/06/07 09:58:42;;;;;;;3.92;1.20;;;;;;;20.13;50.13;100668.06;4956095;28;20089;-70
2022/06/07 10:01:30;;;;;;;3.67;1.15;;;;;;;20.34;49.72;100666.28;4957047;28;20904;-70
2022/06/07 10:04:17;;;;;;;3.55;1.30;;;;;;;20.58;48.55;100663.00;4954065;28;20903;-70
2022/06/07 10:07:04;;;;;;;2.97;0.80;;;;;;;20.61;48.09;100653.72;4952443;28;20010;-70
2022/06/07 10:09:54;;;;;;;1.48;1.15;;;;;;;20.69;47.93;100652.72;4956749;28;20561;-70
2022/06/07 10:12:30;;;;;;;1.13;0.80;;;;;;;20.97;48.85;100643.59;4972898;28;20490;-71
2022/06/07 10:15:02;;;;;;;2.45;0.98;;;;;;;20.88;48.51;100649.22;4972138;28;20025;-70
2022/06/07 10:17:31;;;;;;;1.35;0.90;;;;;;;21.05;47.41;100651.47;4925982;28;20041;-70
2022/06/07 10:20:11;;;;;;;3.58;0.90;;;;;;;21.27;46.66;100642.13;4972219;28;20467;-70
2022/06/07 10:23:14;;;;;;;2.72;1.00;;;;;;;21.72;46.07;100640.59;4938126;28;20015;-70
2022/06/07 10:25:45;;;;;;;1.52;1.10;;;;;;;22.51;43.83;100632.28;4939143;28;20130;-71
2022/06/07 10:28:32;;;;;;;0.70;0.70;;;;;;;23.24;41.92;100642.47;4952858;28;20125;-71
2022/06/07 10:31:03;;;;;;;3.25;1.00;;;;;;;23.37;42.61;100632.59;4971877;28;20197;-71
2022/06/07 10:34:01;;;;;;;1.23;0.80;;;;;;;23.20;41.17;100625.06;4939030;28;20027;-72
2022/06/07 10:36:50;;;;;;;2.17;0.80;;;;;;;23.08;42.43;100627.63;4964014;28;20022;-72
2022/06/07 10:39:30;;;;;;;1.60;0.85;;;;;;;22.77;41.47;100631.25;4974840;28;20034;-71
2022/06/07 10:42:09;;;;;;;0.98;0.65;;;;;;;23.09;42.58;100623.06;4958371;28;20084;-71
2022/06/07 10:44:39;;;;;;;6.13;1.27;;;;;;;22.91;40.93;100623.88;4954577;28;20067;-70
2022/06/07 10:47:31;;;;;;;2.33;0.70;;;;;;;22.59;42.04;100621.22;4946270;28;20042;-70
2022/06/07 10:49:59;;;;;;;6.38;0.80;;;;;;;22.37;42.66;100618.91;4936178;28;20738;-72
2022/06/07 10:52:48;;;;;;;1.98;1.13;;;;;;;22.45;42.46;100615.94;4919772;28;20197;-73
2022/06/07 10:55:23;;;;;;;1.95;0.93;;;;;;;22.41;43.02;100605.81;4954825;28;20588;-71
2022/06/07 10:58:24;;;;;;;1.48;1.08;;;;;;;22.45;43.44;100613.25;4956207;28;20031;-71
2022/06/07 11:01:14;;;;;;;7.28;1.13;;;;;;;22.29;44.03;100609.19;4970376;28;20014;-72
2022/06/07 11:09:59;;;;;;;2.03;0.60;;;;;;;22.45;46.06;100604.34;4922818;28;20034;-71
2022/06/07 11:12:27;;;;;;;8.70;1.00;;;;;;;22.37;44.55;100605.41;4968607;28;20018;-70
2022/06/07 11:15:11;;;;;;;2.03;0.90;;;;;;;22.14;44.44;100603.28;4908712;28;20018;-70
2022/06/07 11:17:45;;;;;;;0.82;0.80;;;;;;;22.10;44.70;100610.13;4954281;28;20030;-71
2022/06/07 11:20:24;;;;;;;2.88;0.90;;;;;;;22.09;45.11;100608.47;4939712;28;20010;-71
2022/06/07 11:23:13;;;;;;;1.92;0.90;;;;;;;21.90;45.48;100605.69;4961986;28;20467;-72
2022/06/07 11:25:43;;;;;;;4.18;0.77;;;;;;;21.65;45.49;100602.91;4931197;28;20319;-72
2022/06/07 11:28:18;;;;;;;1.02;0.93;;;;;;;21.81;47.36;100598.88;4943581;28;20083;-72
2022/06/07 11:30:46;;;;;;;2.88;1.00;;;;;;;21.68;46.24;100601.66;4938592;28;20395;-73
2022/06/07 11:33:31;;;;;;;1.15;0.90;;;;;;;21.49;47.06;100593.41;4945470;28;20026;-72
2022/06/07 11:36:12;;;;;;;2.25;0.80;;;;;;;21.40;47.20;100581.22;4960564;28;20057;-72
2022/06/07 11:38:56;;;;;;;1.42;0.98;;;;;;;21.26;47.57;100601.94;4985053;28;20713;-72
2022/06/07 11:41:36;;;;;;;2.30;1.45;;;;;;;20.91;48.23;100600.38;4978392;28;20026;-73
2022/06/07 11:44:08;;;;;;;2.05;1.10;;;;;;;20.86;49.17;100594.78;4954073;28;20971;-71
2022/06/07 11:46:33;;;;;;;2.58;1.00;;;;;;;20.90;48.27;100598.72;4931850;28;20130;-72
2022/06/07 11:49:17;;;;;;;1.63;1.15;;;;;;;20.74;49.54;100597.28;4972934;28;20982;-72
2022/06/07 11:51:43;;;;;;;4.18;1.27;;;;;;;20.67;49.97;100587.53;4968580;28;20095;-72
2022/06/07 11:54:14;;;;;;;1.95;0.88;;;;;;;20.66;50.27;100593.94;4940906;28;20018;-71
2022/06/07 11:56:42;;;;;;;1.10;0.90;;;;;;;20.57;49.29;100601.38;4944009;28;20010;-72
2022/06/07 11:59:17;;;;;;;1.20;1.00;;;;;;;20.48;50.16;100602.63;4957685;28;20065;-72
2022/06/07 12:01:45;;;;;;;4.32;1.20;;;;;;;20.38;50.74;100614.59;4982685;28;20049;-72